createdAt,value
2022-11-15T00:00:11.140Z,0.00
2022-11-15T00:01:01.101Z,0.00
2022-11-15T00:01:51.497Z,0.00
2022-11-15T00:02:41.094Z,0.00
2022-11-15T00:03:31.576Z,0.00
2022-11-15T00:04:21.102Z,0.00
2022-11-15T00:05:11.074Z,0.00
2022-11-15T00:06:01.049Z,0.00
2022-11-15T00:06:51.080Z,0.00
2022-11-15T00:07:55.121Z,0.00
2022-11-15T00:08:32.042Z,0.00
2022-11-15T00:09:21.010Z,0.00
2022-11-15T00:10:11.023Z,0.00
2022-11-15T00:11:01.026Z,0.00
2022-11-15T00:11:50.991Z,0.00
2022-11-15T00:12:40.979Z,0.00
2022-11-15T00:13:31.449Z,0.00
2022-11-15T00:14:20.988Z,0.00
2022-11-15T00:15:10.951Z,0.00
2022-11-15T00:16:01.193Z,0.00
2022-11-15T00:16:50.933Z,0.00
2022-11-15T00:17:40.920Z,0.00
2022-11-15T00:18:30.921Z,0.00
2022-11-15T00:19:20.911Z,0.00
2022-11-15T00:20:10.906Z,0.00
2022-11-15T00:21:00.881Z,0.00
2022-11-15T00:21:50.914Z,0.00
2022-11-15T00:22:40.881Z,0.00
2022-11-15T00:23:31.164Z,0.00
2022-11-15T00:24:20.841Z,0.00
2022-11-15T00:25:10.869Z,0.00
2022-11-15T00:26:00.819Z,0.00
2022-11-15T00:26:50.812Z,0.00
2022-11-15T00:27:40.878Z,0.00
2022-11-15T00:28:30.812Z,0.00
2022-11-15T00:29:20.822Z,0.00
2022-11-15T00:30:10.789Z,0.00
2022-11-15T00:31:00.789Z,0.00
2022-11-15T00:31:50.759Z,0.00
2022-11-15T00:32:40.773Z,0.00
2022-11-15T00:33:31.067Z,0.00
2022-11-15T00:34:20.739Z,0.00
2022-11-15T00:35:10.729Z,0.00
2022-11-15T00:36:00.710Z,0.00
2022-11-15T00:36:50.765Z,0.00
2022-11-15T00:37:40.709Z,0.00
2022-11-15T00:38:30.909Z,0.00
2022-11-15T00:39:20.698Z,0.00
2022-11-15T00:40:10.678Z,0.00
2022-11-15T00:41:03.874Z,0.00
2022-11-15T00:41:51.670Z,0.00
2022-11-15T00:42:40.667Z,0.00
2022-11-15T00:43:30.946Z,0.00
2022-11-15T00:44:20.619Z,0.00
2022-11-15T00:45:10.751Z,0.00
2022-11-15T00:46:00.621Z,0.00
2022-11-15T00:46:50.807Z,0.00
2022-11-15T00:47:40.605Z,0.00
2022-11-15T00:48:30.566Z,0.00
2022-11-15T00:49:20.565Z,0.00
2022-11-15T00:50:14.205Z,0.00
2022-11-15T00:51:00.547Z,0.00
2022-11-15T00:51:50.543Z,0.00
2022-11-15T00:52:44.755Z,0.00
2022-11-15T00:53:30.780Z,0.00
2022-11-15T00:54:20.525Z,0.00
2022-11-15T00:55:10.635Z,0.00
2022-11-15T00:56:00.516Z,0.00
2022-11-15T00:56:50.477Z,0.00
2022-11-15T00:57:40.582Z,0.00
2022-11-15T00:58:30.496Z,0.00
2022-11-15T00:59:20.483Z,0.00
2022-11-15T01:00:10.479Z,0.00
2022-11-15T01:01:00.486Z,0.00
2022-11-15T01:01:50.444Z,0.00
2022-11-15T01:02:40.416Z,0.00
2022-11-15T01:03:30.763Z,0.00
2022-11-15T01:04:20.633Z,0.00
2022-11-15T01:05:10.382Z,0.00
2022-11-15T01:06:00.392Z,0.00
2022-11-15T01:06:50.423Z,0.00
2022-11-15T01:07:40.382Z,0.00
2022-11-15T01:08:30.376Z,0.00
2022-11-15T01:09:20.362Z,0.00
2022-11-15T01:10:10.352Z,0.00
2022-11-15T01:11:00.342Z,0.00
2022-11-15T01:11:50.325Z,0.00
2022-11-15T01:12:40.301Z,0.00
2022-11-15T01:13:30.547Z,0.00
2022-11-15T01:14:25.118Z,0.00
2022-11-15T01:15:11.319Z,0.00
2022-11-15T01:16:00.269Z,0.00
2022-11-15T01:16:50.263Z,0.00
2022-11-15T01:17:40.259Z,0.00
2022-11-15T01:18:30.253Z,0.00
2022-11-15T01:19:20.260Z,0.00
2022-11-15T01:20:10.242Z,0.00
2022-11-15T01:21:00.260Z,0.00
2022-11-15T01:21:50.240Z,0.00
2022-11-15T01:22:40.206Z,0.00
2022-11-15T01:23:30.572Z,0.00
2022-11-15T01:24:20.199Z,0.00
2022-11-15T01:25:10.180Z,0.00
2022-11-15T01:26:00.166Z,0.00
2022-11-15T01:26:50.370Z,0.00
2022-11-15T01:27:40.160Z,0.00
2022-11-15T01:28:30.150Z,0.00
2022-11-15T01:29:20.137Z,0.00
2022-11-15T01:30:10.129Z,0.00
2022-11-15T01:31:00.109Z,0.00
2022-11-15T01:31:50.108Z,0.00
2022-11-15T01:32:40.119Z,0.00
2022-11-15T01:33:30.571Z,0.00
2022-11-15T01:34:20.308Z,0.00
2022-11-15T01:35:10.077Z,0.00
2022-11-15T01:36:00.054Z,0.00
2022-11-15T01:36:50.045Z,0.00
2022-11-15T01:37:40.038Z,0.00
2022-11-15T01:38:30.018Z,0.00
2022-11-15T01:39:20.021Z,0.00
2022-11-15T01:40:10.057Z,0.00
2022-11-15T01:40:59.997Z,0.00
2022-11-15T01:41:49.977Z,0.00
2022-11-15T01:42:39.975Z,0.00
2022-11-15T01:43:30.240Z,0.00
2022-11-15T01:44:19.977Z,0.00
2022-11-15T01:45:09.956Z,0.00
2022-11-15T01:46:00.159Z,0.00
2022-11-15T01:46:49.936Z,0.00
2022-11-15T01:47:39.954Z,0.00
2022-11-15T01:48:29.917Z,0.00
2022-11-15T01:49:19.905Z,0.00
2022-11-15T01:50:09.898Z,0.00
2022-11-15T01:50:59.889Z,0.00
2022-11-15T01:51:49.933Z,0.00
2022-11-15T01:52:39.874Z,0.00
2022-11-15T01:53:30.070Z,0.00
2022-11-15T01:54:19.843Z,0.00
2022-11-15T01:55:09.843Z,0.00
2022-11-15T01:55:59.844Z,0.00
2022-11-15T01:56:49.812Z,0.00
2022-11-15T01:57:40.053Z,0.00
2022-11-15T01:58:29.813Z,0.00
2022-11-15T01:59:19.803Z,0.00
2022-11-15T02:00:09.778Z,0.00
2022-11-15T02:00:59.830Z,0.00
2022-11-15T02:01:49.764Z,0.00
2022-11-15T02:02:39.743Z,0.00
2022-11-15T02:03:30.012Z,0.00
2022-11-15T02:04:19.736Z,0.00
2022-11-15T02:05:09.723Z,0.00
2022-11-15T02:05:59.761Z,0.00
2022-11-15T02:06:49.768Z,0.00
2022-11-15T02:07:39.711Z,0.00
2022-11-15T02:08:29.701Z,0.00
2022-11-15T02:09:19.718Z,0.00
2022-11-15T02:10:09.672Z,0.00
2022-11-15T02:10:59.656Z,0.00
2022-11-15T02:11:49.643Z,0.00
2022-11-15T02:12:39.661Z,0.00
2022-11-15T02:13:29.951Z,0.00
2022-11-15T02:14:19.631Z,0.00
2022-11-15T02:15:09.618Z,0.00
2022-11-15T02:16:02.990Z,0.00
2022-11-15T02:16:49.606Z,0.00
2022-11-15T02:17:39.581Z,0.00
2022-11-15T02:18:29.567Z,0.00
2022-11-15T02:19:19.779Z,0.00
2022-11-15T02:20:09.566Z,0.00
2022-11-15T02:20:59.558Z,0.00
2022-11-15T02:21:49.530Z,0.00
2022-11-15T02:22:39.520Z,0.00
2022-11-15T02:23:29.900Z,0.00
2022-11-15T02:24:19.517Z,0.00
2022-11-15T02:25:09.540Z,0.00
2022-11-15T02:25:59.490Z,0.00
2022-11-15T02:26:49.469Z,0.00
2022-11-15T02:27:39.474Z,0.00
2022-11-15T02:28:29.462Z,0.00
2022-11-15T02:29:19.469Z,0.00
2022-11-15T02:30:09.498Z,0.00
2022-11-15T02:30:59.451Z,0.00
2022-11-15T02:31:49.418Z,0.00
2022-11-15T02:32:39.417Z,0.00
2022-11-15T02:33:29.810Z,0.00
2022-11-15T02:34:19.395Z,0.00
2022-11-15T02:35:09.399Z,0.00
2022-11-15T02:35:59.445Z,0.00
2022-11-15T02:36:49.388Z,0.00
2022-11-15T02:37:39.418Z,0.00
2022-11-15T02:38:29.338Z,0.00
2022-11-15T02:39:19.359Z,0.00
2022-11-15T02:40:09.346Z,0.00
2022-11-15T02:40:59.319Z,0.00
2022-11-15T02:41:49.514Z,0.00
2022-11-15T02:42:39.314Z,0.00
2022-11-15T02:43:29.573Z,0.00
2022-11-15T02:44:19.510Z,0.00
2022-11-15T02:45:09.284Z,0.00
2022-11-15T02:45:59.257Z,0.00
2022-11-15T02:46:49.261Z,0.00
2022-11-15T02:47:39.285Z,0.00
2022-11-15T02:48:29.243Z,0.00
2022-11-15T02:49:19.242Z,0.00
2022-11-15T02:50:09.460Z,0.00
2022-11-15T02:50:59.206Z,0.00
2022-11-15T02:51:49.203Z,0.00
2022-11-15T02:52:39.203Z,0.00
2022-11-15T02:53:29.594Z,0.00
2022-11-15T02:54:19.164Z,0.00
2022-11-15T02:55:09.153Z,0.00
2022-11-15T02:55:59.187Z,0.00
2022-11-15T02:56:49.144Z,0.00
2022-11-15T02:57:39.142Z,0.00
2022-11-15T02:58:29.140Z,0.00
2022-11-15T02:59:19.526Z,0.00
2022-11-15T03:00:09.102Z,0.00
2022-11-15T03:00:59.171Z,0.00
2022-11-15T03:01:49.104Z,0.00
2022-11-15T03:02:39.091Z,0.00
2022-11-15T03:03:29.399Z,0.00
2022-11-15T03:04:19.069Z,0.00
2022-11-15T03:05:09.085Z,0.00
2022-11-15T03:05:59.052Z,0.00
2022-11-15T03:06:49.079Z,0.00
2022-11-15T03:07:39.031Z,0.00
2022-11-15T03:08:29.012Z,0.00
2022-11-15T03:09:19.030Z,0.00
2022-11-15T03:10:08.992Z,0.00
2022-11-15T03:10:59.046Z,0.00
2022-11-15T03:11:48.969Z,0.00
2022-11-15T03:12:38.966Z,0.00
2022-11-15T03:13:29.213Z,0.00
2022-11-15T03:14:18.956Z,0.00
2022-11-15T03:15:08.929Z,0.00
2022-11-15T03:15:58.933Z,0.00
2022-11-15T03:16:48.928Z,0.00
2022-11-15T03:17:38.909Z,0.00
2022-11-15T03:18:28.897Z,0.00
2022-11-15T03:19:18.919Z,0.00
2022-11-15T03:20:08.877Z,0.00
2022-11-15T03:20:58.869Z,0.00
2022-11-15T03:21:48.871Z,0.00
2022-11-15T03:22:38.907Z,0.00
2022-11-15T03:23:29.208Z,0.00
2022-11-15T03:24:23.261Z,0.00
2022-11-15T03:25:09.828Z,0.00
2022-11-15T03:25:58.829Z,0.00
2022-11-15T03:26:48.796Z,0.00
2022-11-15T03:27:39.105Z,0.00
2022-11-15T03:28:28.796Z,0.00
2022-11-15T03:29:18.806Z,0.00
2022-11-15T03:30:08.788Z,0.00
2022-11-15T03:30:58.785Z,0.00
2022-11-15T03:31:50.939Z,0.00
2022-11-15T03:32:38.735Z,0.00
2022-11-15T03:33:29.074Z,0.00
2022-11-15T03:34:18.744Z,0.00
2022-11-15T03:35:08.726Z,0.00
2022-11-15T03:35:58.749Z,0.00
2022-11-15T03:36:48.695Z,0.00
2022-11-15T03:37:38.684Z,0.00
2022-11-15T03:38:28.765Z,0.00
2022-11-15T03:39:20.716Z,0.00
2022-11-15T03:40:08.672Z,0.00
2022-11-15T03:40:58.655Z,0.00
2022-11-15T03:41:48.633Z,0.00
2022-11-15T03:42:38.645Z,0.00
2022-11-15T03:43:29.118Z,0.00
2022-11-15T03:44:18.614Z,0.00
2022-11-15T03:45:08.618Z,0.00
2022-11-15T03:45:58.583Z,0.00
2022-11-15T03:46:48.785Z,0.00
2022-11-15T03:47:38.582Z,0.00
2022-11-15T03:48:28.580Z,0.00
2022-11-15T03:49:18.803Z,0.00
2022-11-15T03:50:08.542Z,0.00
2022-11-15T03:50:58.536Z,0.00
2022-11-15T03:51:48.523Z,0.00
2022-11-15T03:52:38.524Z,0.00
2022-11-15T03:53:28.586Z,0.00
2022-11-15T03:54:18.494Z,0.00
2022-11-15T03:55:08.732Z,0.00
2022-11-15T03:55:58.474Z,0.00
2022-11-15T03:56:48.494Z,0.00
2022-11-15T03:57:38.459Z,0.00
2022-11-15T03:58:28.451Z,0.00
2022-11-15T03:59:18.461Z,0.00
2022-11-15T04:00:08.462Z,0.00
2022-11-15T04:00:58.708Z,0.00
2022-11-15T04:01:48.422Z,0.00
2022-11-15T04:02:38.422Z,0.00
2022-11-15T04:03:28.537Z,0.00
2022-11-15T04:04:18.391Z,0.00
2022-11-15T04:05:08.395Z,0.00
2022-11-15T04:05:58.361Z,0.00
2022-11-15T04:06:48.460Z,0.00
2022-11-15T04:07:38.360Z,0.00
2022-11-15T04:08:28.360Z,0.00
2022-11-15T04:09:18.332Z,0.00
2022-11-15T04:10:08.321Z,0.00
2022-11-15T04:10:58.993Z,0.00
2022-11-15T04:11:48.324Z,0.00
2022-11-15T04:12:38.311Z,0.00
2022-11-15T04:13:28.293Z,0.00
2022-11-15T04:14:18.281Z,0.00
2022-11-15T04:15:08.381Z,0.00
2022-11-15T04:15:58.269Z,0.00
2022-11-15T04:16:48.280Z,0.00
2022-11-15T04:17:38.258Z,0.00
2022-11-15T04:18:28.237Z,0.00
2022-11-15T04:19:18.238Z,0.00
2022-11-15T04:20:08.239Z,0.00
2022-11-15T04:20:58.198Z,0.00
2022-11-15T04:21:48.244Z,0.00
2022-11-15T04:22:38.188Z,0.00
2022-11-15T04:23:28.516Z,0.00
2022-11-15T04:24:18.177Z,0.00
2022-11-15T04:25:08.164Z,0.00
2022-11-15T04:25:58.139Z,0.00
2022-11-15T04:26:48.144Z,0.00
2022-11-15T04:27:38.124Z,0.00
2022-11-15T04:28:28.117Z,0.00
2022-11-15T04:29:18.379Z,0.00
2022-11-15T04:30:08.117Z,0.00
2022-11-15T04:30:58.096Z,0.00
2022-11-15T04:31:48.096Z,0.00
2022-11-15T04:32:38.067Z,0.00
2022-11-15T04:33:28.056Z,0.00
2022-11-15T04:34:18.064Z,0.00
2022-11-15T04:35:08.076Z,0.00
2022-11-15T04:35:58.046Z,0.00
2022-11-15T04:36:48.034Z,0.00
2022-11-15T04:37:38.024Z,0.00
2022-11-15T04:38:28.006Z,0.00
2022-11-15T04:39:18.012Z,0.00
2022-11-15T04:40:08.003Z,0.00
2022-11-15T04:40:57.996Z,0.00
2022-11-15T04:41:48.006Z,0.00
2022-11-15T04:42:37.964Z,0.00
2022-11-15T04:43:27.960Z,0.00
2022-11-15T04:44:17.940Z,0.00
2022-11-15T04:45:07.945Z,0.00
2022-11-15T04:45:57.915Z,0.00
2022-11-15T04:46:47.944Z,0.00
2022-11-15T04:47:37.893Z,0.00
2022-11-15T04:48:27.896Z,0.00
2022-11-15T04:49:17.961Z,0.00
2022-11-15T04:50:07.874Z,0.00
2022-11-15T04:50:57.896Z,0.00
2022-11-15T04:51:47.882Z,0.00
2022-11-15T04:52:37.842Z,0.00
2022-11-15T04:53:27.851Z,0.00
2022-11-15T04:54:17.842Z,0.00
2022-11-15T04:55:08.401Z,0.00
2022-11-15T04:55:57.810Z,0.00
2022-11-15T04:56:47.813Z,0.00
2022-11-15T04:57:37.937Z,0.00
2022-11-15T04:58:27.789Z,0.00
2022-11-15T04:59:17.782Z,0.00
2022-11-15T05:00:07.791Z,0.00
2022-11-15T05:00:57.812Z,0.00
2022-11-15T05:01:47.783Z,0.00
2022-11-15T05:02:37.737Z,0.00
2022-11-15T05:03:27.740Z,0.00
2022-11-15T05:04:17.711Z,0.00
2022-11-15T05:05:07.710Z,0.00
2022-11-15T05:05:57.711Z,0.00
2022-11-15T05:06:47.774Z,0.00
2022-11-15T05:07:37.709Z,0.00
2022-11-15T05:08:27.689Z,0.00
2022-11-15T05:09:17.675Z,0.00
2022-11-15T05:10:07.650Z,0.00
2022-11-15T05:10:57.656Z,0.00
2022-11-15T05:11:47.661Z,0.00
2022-11-15T05:12:37.660Z,0.00
2022-11-15T05:13:27.640Z,0.00
2022-11-15T05:14:17.617Z,0.00
2022-11-15T05:15:07.608Z,0.00
2022-11-15T05:15:57.579Z,0.00
2022-11-15T05:16:47.610Z,0.00
2022-11-15T05:17:37.569Z,0.00
2022-11-15T05:18:27.567Z,0.00
2022-11-15T05:19:17.665Z,0.00
2022-11-15T05:20:07.545Z,0.00
2022-11-15T05:20:57.546Z,0.00
2022-11-15T05:21:47.521Z,0.00
2022-11-15T05:22:37.507Z,0.00
2022-11-15T05:23:27.517Z,0.00
2022-11-15T05:24:17.509Z,0.00
2022-11-15T05:25:07.576Z,0.00
2022-11-15T05:25:57.514Z,0.00
2022-11-15T05:26:47.477Z,0.00
2022-11-15T05:27:37.479Z,0.00
2022-11-15T05:28:27.465Z,0.00
2022-11-15T05:29:17.446Z,0.00
2022-11-15T05:30:07.430Z,0.00
2022-11-15T05:30:57.426Z,0.00
2022-11-15T05:31:47.426Z,0.00
2022-11-15T05:32:37.413Z,0.00
2022-11-15T05:33:27.415Z,0.00
2022-11-15T05:34:17.375Z,0.00
2022-11-15T05:35:07.374Z,0.00
2022-11-15T05:35:57.632Z,0.00
2022-11-15T05:36:47.378Z,0.00
2022-11-15T05:37:37.356Z,0.00
2022-11-15T05:38:27.352Z,0.00
2022-11-15T05:39:17.336Z,0.00
2022-11-15T05:40:07.342Z,0.00
2022-11-15T05:40:57.320Z,0.00
2022-11-15T05:41:47.322Z,0.00
2022-11-15T05:42:37.292Z,0.00
2022-11-15T05:43:27.296Z,0.00
2022-11-15T05:44:17.324Z,0.00
2022-11-15T05:45:07.294Z,0.00
2022-11-15T05:45:57.261Z,0.00
2022-11-15T05:46:47.252Z,0.00
2022-11-15T05:47:37.252Z,0.00
2022-11-15T05:48:27.463Z,0.00
2022-11-15T05:49:17.220Z,0.00
2022-11-15T05:50:07.201Z,0.00
2022-11-15T05:50:57.210Z,0.00
2022-11-15T05:51:47.191Z,0.00
2022-11-15T05:52:37.171Z,0.00
2022-11-15T05:53:27.200Z,0.00
2022-11-15T05:54:17.173Z,0.00
2022-11-15T05:55:07.160Z,0.00
2022-11-15T05:55:57.143Z,0.00
2022-11-15T05:56:47.147Z,0.00
2022-11-15T05:57:37.142Z,0.00
2022-11-15T05:58:27.131Z,0.00
2022-11-15T05:59:17.325Z,0.00
2022-11-15T06:00:07.529Z,0.00
2022-11-15T06:00:57.090Z,0.00
2022-11-15T06:01:47.125Z,0.00
2022-11-15T06:02:37.096Z,0.00
2022-11-15T06:03:27.069Z,0.00
2022-11-15T06:04:17.060Z,0.00
2022-11-15T06:05:07.028Z,0.00
2022-11-15T06:05:57.038Z,4.00
2022-11-15T06:06:47.095Z,4.00
2022-11-15T06:07:37.069Z,0.00
2022-11-15T06:08:26.990Z,0.00
2022-11-15T06:09:16.989Z,4.00
2022-11-15T06:10:07.229Z,4.00
2022-11-15T06:10:56.985Z,4.00
2022-11-15T06:11:46.993Z,4.00
2022-11-15T06:12:36.948Z,4.00
2022-11-15T06:13:26.938Z,4.00
2022-11-15T06:14:16.951Z,4.00
2022-11-15T06:15:06.939Z,4.00
2022-11-15T06:15:56.935Z,8.00
2022-11-15T06:16:46.913Z,8.00
2022-11-15T06:17:36.898Z,8.00
2022-11-15T06:18:26.911Z,8.00
2022-11-15T06:19:16.880Z,8.00
2022-11-15T06:20:06.871Z,12.00
2022-11-15T06:20:56.859Z,12.00
2022-11-15T06:21:47.109Z,16.00
2022-11-15T06:22:36.852Z,20.00
2022-11-15T06:23:26.861Z,24.00
2022-11-15T06:24:16.851Z,28.00
2022-11-15T06:25:06.819Z,36.00
2022-11-15T06:25:56.806Z,40.00
2022-11-15T06:26:46.788Z,48.00
2022-11-15T06:27:36.871Z,52.00
2022-11-15T06:28:26.764Z,56.00
2022-11-15T06:29:16.742Z,64.00
2022-11-15T06:30:06.752Z,72.00
2022-11-15T06:30:56.743Z,72.00
2022-11-15T06:31:46.736Z,76.00
2022-11-15T06:32:36.730Z,80.00
2022-11-15T06:33:26.781Z,88.00
2022-11-15T06:34:16.716Z,92.00
2022-11-15T06:35:06.733Z,104.00
2022-11-15T06:35:56.675Z,112.00
2022-11-15T06:36:46.660Z,128.00
2022-11-15T06:37:36.661Z,144.00
2022-11-15T06:38:26.669Z,164.00
2022-11-15T06:39:16.694Z,184.00
2022-11-15T06:40:06.620Z,208.00
2022-11-15T06:40:56.621Z,228.00
2022-11-15T06:41:46.644Z,240.00
2022-11-15T06:42:36.595Z,252.00
2022-11-15T06:43:26.607Z,264.00
2022-11-15T06:44:16.580Z,276.00
2022-11-15T06:45:06.590Z,296.00
2022-11-15T06:45:56.570Z,312.00
2022-11-15T06:46:46.580Z,336.00
2022-11-15T06:47:36.539Z,364.00
2022-11-15T06:48:26.548Z,392.00
2022-11-15T06:49:16.530Z,424.00
2022-11-15T06:50:06.528Z,456.00
2022-11-15T06:50:56.590Z,492.00
2022-11-15T06:51:46.501Z,532.00
2022-11-15T06:52:36.503Z,580.00
2022-11-15T06:53:26.488Z,636.00
2022-11-15T06:54:16.468Z,700.00
2022-11-15T06:55:06.464Z,768.00
2022-11-15T06:55:56.474Z,828.00
2022-11-15T06:56:46.689Z,868.00
2022-11-15T06:57:36.444Z,896.00
2022-11-15T06:58:26.435Z,900.00
2022-11-15T06:59:16.428Z,900.00
2022-11-15T07:00:06.434Z,880.00
2022-11-15T07:00:56.421Z,852.00
2022-11-15T07:01:46.497Z,820.00
2022-11-15T07:02:36.417Z,796.00
2022-11-15T07:03:26.368Z,776.00
2022-11-15T07:04:16.367Z,764.00
2022-11-15T07:05:06.385Z,752.00
2022-11-15T07:05:56.358Z,744.00
2022-11-15T07:06:46.407Z,740.00
2022-11-15T07:07:36.352Z,732.00
2022-11-15T07:08:26.364Z,716.00
2022-11-15T07:09:16.300Z,704.00
2022-11-15T07:10:06.296Z,696.00
2022-11-15T07:10:56.290Z,676.00
2022-11-15T07:11:46.309Z,664.00
2022-11-15T07:12:36.269Z,660.00
2022-11-15T07:13:26.254Z,656.00
2022-11-15T07:14:16.461Z,656.00
2022-11-15T07:15:06.236Z,656.00
2022-11-15T07:15:56.256Z,668.00
2022-11-15T07:16:46.220Z,676.00
2022-11-15T07:17:36.245Z,676.00
2022-11-15T07:18:26.204Z,692.00
2022-11-15T07:19:16.214Z,692.00
2022-11-15T07:20:08.731Z,700.00
2022-11-15T07:20:56.177Z,712.00
2022-11-15T07:21:46.190Z,720.00
2022-11-15T07:22:36.161Z,736.00
2022-11-15T07:23:26.153Z,748.00
2022-11-15T07:24:16.360Z,756.00
2022-11-15T07:25:06.123Z,768.00
2022-11-15T07:25:56.122Z,780.00
2022-11-15T07:26:46.139Z,788.00
2022-11-15T07:27:36.093Z,800.00
2022-11-15T07:28:26.333Z,820.00
2022-11-15T07:29:16.111Z,852.00
2022-11-15T07:30:06.075Z,880.00
2022-11-15T07:30:56.055Z,908.00
2022-11-15T07:31:46.042Z,928.00
2022-11-15T07:32:36.032Z,940.00
2022-11-15T07:33:26.029Z,960.00
2022-11-15T07:34:16.096Z,996.00
2022-11-15T07:35:06.003Z,1048.00
2022-11-15T07:35:56.002Z,1112.00
2022-11-15T07:36:45.982Z,1180.00
2022-11-15T07:37:36.016Z,1240.00
2022-11-15T07:38:25.989Z,1292.00
2022-11-15T07:39:15.983Z,1312.00
2022-11-15T07:40:06.002Z,1316.00
2022-11-15T07:40:55.962Z,1320.00
2022-11-15T07:41:45.939Z,1324.00
2022-11-15T07:42:35.932Z,1316.00
2022-11-15T07:43:25.927Z,1316.00
2022-11-15T07:44:15.911Z,1344.00
2022-11-15T07:45:05.914Z,1400.00
2022-11-15T07:45:59.378Z,1436.00
2022-11-15T07:46:45.894Z,1440.00
2022-11-15T07:47:35.880Z,1416.00
2022-11-15T07:48:26.089Z,1408.00
2022-11-15T07:49:15.850Z,1432.00
2022-11-15T07:50:05.851Z,1468.00
2022-11-15T07:50:55.843Z,1492.00
2022-11-15T07:51:45.862Z,1512.00
2022-11-15T07:52:35.822Z,1516.00
2022-11-15T07:53:25.789Z,1516.00
2022-11-15T07:54:15.792Z,1512.00
2022-11-15T07:55:05.780Z,1516.00
2022-11-15T07:55:55.781Z,1512.00
2022-11-15T07:56:45.776Z,1492.00
2022-11-15T07:57:36.039Z,1468.00
2022-11-15T07:58:25.739Z,1464.00
2022-11-15T07:59:15.759Z,1472.00
2022-11-15T08:00:05.758Z,1484.00
2022-11-15T08:00:55.742Z,1476.00
2022-11-15T08:01:45.842Z,1484.00
2022-11-15T08:02:35.821Z,1480.00
2022-11-15T08:03:25.929Z,1464.00
2022-11-15T08:04:15.708Z,1448.00
2022-11-15T08:05:05.677Z,1452.00
2022-11-15T08:05:55.675Z,1456.00
2022-11-15T08:06:45.707Z,1484.00
2022-11-15T08:07:35.786Z,1520.00
2022-11-15T08:08:25.670Z,1600.00
2022-11-15T08:09:18.208Z,1664.00
2022-11-15T08:10:05.652Z,1728.00
2022-11-15T08:10:55.637Z,1788.00
2022-11-15T08:11:45.644Z,1856.00
2022-11-15T08:12:35.649Z,1924.00
2022-11-15T08:13:25.587Z,1968.00
2022-11-15T08:14:15.590Z,1988.00
2022-11-15T08:15:05.619Z,2000.00
2022-11-15T08:15:57.843Z,2012.00
2022-11-15T08:16:45.549Z,2040.00
2022-11-15T08:17:35.570Z,2048.00
2022-11-15T08:18:25.555Z,2028.00
2022-11-15T08:19:15.529Z,2016.00
2022-11-15T08:20:05.511Z,1996.00
2022-11-15T08:20:55.600Z,1972.00
2022-11-15T08:21:45.523Z,1940.00
2022-11-15T08:22:35.497Z,1876.00
2022-11-15T08:23:25.481Z,1824.00
2022-11-15T08:24:15.477Z,1800.00
2022-11-15T08:25:05.489Z,1832.00
2022-11-15T08:25:55.458Z,1912.00
2022-11-15T08:26:45.591Z,1996.00
2022-11-15T08:27:35.478Z,2080.00
2022-11-15T08:28:25.421Z,2148.00
2022-11-15T08:29:15.419Z,2196.00
2022-11-15T08:30:05.423Z,2208.00
2022-11-15T08:30:55.396Z,2212.00
2022-11-15T08:31:45.406Z,2212.00
2022-11-15T08:32:35.487Z,2212.00
2022-11-15T08:33:25.369Z,2232.00
2022-11-15T08:34:15.378Z,2268.00
2022-11-15T08:35:05.346Z,2308.00
2022-11-15T08:35:55.344Z,2328.00
2022-11-15T08:36:46.261Z,2356.00
2022-11-15T08:37:35.318Z,2404.00
2022-11-15T08:38:25.566Z,2448.00
2022-11-15T08:39:15.306Z,2496.00
2022-11-15T08:40:05.358Z,2544.00
2022-11-15T08:40:55.309Z,2612.00
2022-11-15T08:41:45.268Z,2704.00
2022-11-15T08:42:35.295Z,2812.00
2022-11-15T08:43:25.250Z,2912.00
2022-11-15T08:44:15.289Z,2988.00
2022-11-15T08:45:05.229Z,3024.00
2022-11-15T08:45:55.246Z,3044.00
2022-11-15T08:46:45.214Z,3052.00
2022-11-15T08:47:35.197Z,3056.00
2022-11-15T08:48:25.195Z,3064.00
2022-11-15T08:49:15.184Z,3088.00
2022-11-15T08:50:05.394Z,3124.00
2022-11-15T08:50:55.186Z,3184.00
2022-11-15T08:51:45.167Z,3188.00
2022-11-15T08:52:35.145Z,3184.00
2022-11-15T08:53:25.157Z,3152.00
2022-11-15T08:54:15.156Z,3084.00
2022-11-15T08:55:05.134Z,2992.00
2022-11-15T08:55:55.180Z,2856.00
2022-11-15T08:56:45.123Z,2712.00
2022-11-15T08:57:35.094Z,2568.00
2022-11-15T08:58:25.088Z,2452.00
2022-11-15T08:59:15.194Z,2372.00
2022-11-15T09:00:05.064Z,2312.00
2022-11-15T09:00:55.073Z,2260.00
2022-11-15T09:01:45.149Z,2220.00
2022-11-15T09:02:35.070Z,2204.00
2022-11-15T09:03:25.024Z,2244.00
2022-11-15T09:04:15.022Z,2316.00
2022-11-15T09:05:05.022Z,2416.00
2022-11-15T09:05:54.997Z,2532.00
2022-11-15T09:06:45.004Z,2664.00
2022-11-15T09:07:35.067Z,2812.00
2022-11-15T09:08:46.675Z,2952.00
2022-11-15T09:09:15.973Z,3064.00
2022-11-15T09:10:05.074Z,3144.00
2022-11-15T09:10:54.971Z,3176.00
2022-11-15T09:11:44.932Z,3196.00
2022-11-15T09:12:34.942Z,3232.00
2022-11-15T09:13:24.973Z,3288.00
2022-11-15T09:14:14.903Z,3336.00
2022-11-15T09:15:04.905Z,3368.00
2022-11-15T09:15:54.906Z,3416.00
2022-11-15T09:16:44.882Z,3476.00
2022-11-15T09:17:34.882Z,3512.00
2022-11-15T09:18:24.851Z,3536.00
2022-11-15T09:19:14.902Z,3572.00
2022-11-15T09:20:04.861Z,3608.00
2022-11-15T09:20:54.832Z,3652.00
2022-11-15T09:21:44.831Z,3712.00
2022-11-15T09:22:34.820Z,3772.00
2022-11-15T09:23:24.791Z,3824.00
2022-11-15T09:24:14.796Z,3892.00
2022-11-15T09:25:08.501Z,3956.00
2022-11-15T09:25:55.771Z,4020.00
2022-11-15T09:26:44.760Z,4040.00
2022-11-15T09:27:34.752Z,4028.00
2022-11-15T09:28:24.740Z,3968.00
2022-11-15T09:29:14.780Z,3868.00
2022-11-15T09:30:04.742Z,3768.00
2022-11-15T09:30:54.731Z,3652.00
2022-11-15T09:31:44.710Z,3532.00
2022-11-15T09:32:38.956Z,3404.00
2022-11-15T09:33:24.708Z,3328.00
2022-11-15T09:34:14.693Z,3308.00
2022-11-15T09:35:04.792Z,3300.00
2022-11-15T09:35:54.737Z,3272.00
2022-11-15T09:36:44.659Z,3204.00
2022-11-15T09:37:34.672Z,3136.00
2022-11-15T09:38:24.631Z,3092.00
2022-11-15T09:39:14.644Z,3040.00
2022-11-15T09:40:04.630Z,3004.00
2022-11-15T09:40:54.839Z,3016.00
2022-11-15T09:41:44.643Z,3032.00
2022-11-15T09:42:34.621Z,3044.00
2022-11-15T09:43:24.578Z,3016.00
2022-11-15T09:44:14.589Z,2924.00
2022-11-15T09:45:04.550Z,2792.00
2022-11-15T09:45:54.562Z,2656.00
2022-11-15T09:46:44.771Z,2564.00
2022-11-15T09:47:34.610Z,2532.00
2022-11-15T09:48:24.536Z,2556.00
2022-11-15T09:49:14.528Z,2596.00
2022-11-15T09:50:04.497Z,2632.00
2022-11-15T09:50:54.547Z,2676.00
2022-11-15T09:51:44.508Z,2740.00
2022-11-15T09:52:34.517Z,2796.00
2022-11-15T09:53:47.930Z,2836.00
2022-11-15T09:54:46.116Z,2860.00
2022-11-15T09:55:05.457Z,2884.00
2022-11-15T09:55:54.427Z,2924.00
2022-11-15T09:56:44.434Z,2956.00
2022-11-15T09:57:34.426Z,2980.00
2022-11-15T09:58:24.449Z,2988.00
2022-11-15T09:59:14.417Z,3000.00
2022-11-15T10:00:30.836Z,3036.00
2022-11-15T10:00:55.425Z,3116.00
2022-11-15T10:01:44.392Z,3232.00
2022-11-15T10:02:34.375Z,3348.00
2022-11-15T10:03:24.368Z,3428.00
2022-11-15T10:04:14.404Z,3452.00
2022-11-15T10:05:04.342Z,3484.00
2022-11-15T10:05:54.325Z,3568.00
2022-11-15T10:06:44.317Z,3692.00
2022-11-15T10:07:34.360Z,3840.00
2022-11-15T10:08:24.297Z,4008.00
2022-11-15T10:09:14.286Z,4156.00
2022-11-15T10:10:04.365Z,4276.00
2022-11-15T10:11:15.745Z,4336.00
2022-11-15T10:11:45.261Z,4392.00
2022-11-15T10:12:34.244Z,4448.00
2022-11-15T10:13:24.244Z,4444.00
2022-11-15T10:14:14.247Z,4384.00
2022-11-15T10:15:04.228Z,4264.00
2022-11-15T10:15:54.255Z,4144.00
2022-11-15T10:16:44.231Z,4064.00
2022-11-15T10:17:34.193Z,3992.00
2022-11-15T10:18:24.204Z,3988.00
2022-11-15T10:19:14.189Z,4084.00
2022-11-15T10:20:06.140Z,4236.00
2022-11-15T10:20:54.153Z,4432.00
2022-11-15T10:21:44.195Z,4592.00
2022-11-15T10:22:34.145Z,4740.00
2022-11-15T10:23:24.127Z,4920.00
2022-11-15T10:24:14.135Z,5052.00
2022-11-15T10:25:04.110Z,5116.00
2022-11-15T10:25:54.143Z,5176.00
2022-11-15T10:26:44.095Z,5220.00
2022-11-15T10:27:34.135Z,5208.00
2022-11-15T10:28:24.080Z,5104.00
2022-11-15T10:29:14.066Z,4984.00
2022-11-15T10:30:04.066Z,4960.00
2022-11-15T10:30:54.054Z,5000.00
2022-11-15T10:31:44.043Z,5044.00
2022-11-15T10:32:34.257Z,5096.00
2022-11-15T10:33:24.446Z,5112.00
2022-11-15T10:34:14.014Z,5072.00
2022-11-15T10:35:04.023Z,4976.00
2022-11-15T10:35:54.003Z,4908.00
2022-11-15T10:36:49.101Z,4888.00
2022-11-15T10:37:35.205Z,4892.00
2022-11-15T10:38:23.963Z,4892.00
2022-11-15T10:39:13.963Z,4904.00
2022-11-15T10:40:03.952Z,4924.00
2022-11-15T10:40:53.960Z,4968.00
2022-11-15T10:41:43.943Z,4996.00